Time;durP1;ratioP1;P1;durP2;ratioP2;P2;SDS_P1;SDS_P2;PMS_P1;PMS_P2;Temp;Humidity;BMP_temperature;BMP_pressure;BME280_temperature;BME280_humidity;BME280_pressure;Samples;Min_cycle;Max_cycle;Signal;HPM_P1;HPM_P2
2022/04/18 00:01:12;;;;;;;14.55;7.97;;;6.10;1.00;;;;;;5090184;28;20477;-26
2022/04/18 00:03:41;;;;;;;13.27;8.90;;;6.10;1.00;;;;;;5124236;27;20039;-26
2022/04/18 00:06:14;;;;;;;14.55;7.85;;;6.10;1.00;;;;;;5122210;27;20047;-26
2022/04/18 00:08:39;;;;;;;15.27;7.95;;;6.10;1.00;;;;;;5103890;28;20090;-28
2022/04/18 00:11:10;;;;;;;11.68;7.53;;;6.10;1.00;;;;;;5110578;27;20432;-26
2022/04/18 00:13:35;;;;;;;15.60;8.57;;;6.10;1.00;;;;;;5108852;27;20377;-25
2022/04/18 00:16:01;;;;;;;11.77;8.18;;;6.10;1.00;;;;;;5116306;27;20047;-26
2022/04/18 00:18:29;;;;;;;14.50;8.25;;;6.10;1.00;;;;;;5123239;27;20039;-27
2022/04/18 00:20:59;;;;;;;15.55;7.72;;;6.10;1.00;;;;;;5128667;27;20381;-26
2022/04/18 00:23:25;;;;;;;14.93;8.45;;;6.00;1.00;;;;;;5101905;28;20076;-26
2022/04/18 00:25:53;;;;;;;12.23;7.97;;;6.00;1.00;;;;;;5121718;27;20044;-26
2022/04/18 00:28:21;;;;;;;14.00;8.67;;;6.00;1.00;;;;;;5121382;27;20133;-26
2022/04/18 00:30:49;;;;;;;14.50;7.88;;;5.90;1.00;;;;;;5115156;27;20048;-26
2022/04/18 00:33:20;;;;;;;14.10;8.35;;;5.90;1.00;;;;;;5115552;28;20035;-27
2022/04/18 00:35:46;;;;;;;14.25;8.48;;;5.80;1.00;;;;;;5124365;28;20043;-27
2022/04/18 00:38:14;;;;;;;14.70;8.63;;;5.80;1.00;;;;;;5121533;28;20046;-26
2022/04/18 00:40:44;;;;;;;11.90;7.60;;;5.80;1.00;;;;;;5108342;28;20054;-28
2022/04/18 00:43:10;;;;;;;14.20;8.73;;;5.70;1.00;;;;;;5122120;28;20122;-26
2022/04/18 00:45:36;;;;;;;13.77;7.68;;;5.70;1.00;;;;;;5113408;28;20465;-26
2022/04/18 00:48:07;;;;;;;15.27;8.57;;;5.70;1.00;;;;;;5127623;28;20114;-26
2022/04/18 00:50:40;;;;;;;14.63;8.53;;;5.70;1.00;;;;;;5101005;28;20043;-26
2022/04/18 00:53:13;;;;;;;14.20;7.80;;;5.70;1.00;;;;;;5129606;28;20400;-26
2022/04/18 00:55:38;;;;;;;13.10;7.82;;;5.70;1.00;;;;;;5106673;28;20477;-26
2022/04/18 00:58:09;;;;;;;13.87;8.50;;;5.70;1.00;;;;;;5118843;28;20104;-26
2022/04/18 01:00:37;;;;;;;13.10;8.23;;;5.60;1.00;;;;;;5129891;28;20560;-26
2022/04/18 01:03:08;;;;;;;14.17;8.60;;;5.60;1.00;;;;;;5128002;28;20071;-26
2022/04/18 01:05:38;;;;;;;14.65;9.00;;;5.60;1.20;;;;;;5115552;28;20048;-26
2022/04/18 01:08:09;;;;;;;15.50;9.47;;;5.50;1.00;;;;;;5099851;28;20058;-26
2022/04/18 01:10:37;;;;;;;14.93;8.47;;;5.50;10.30;;;;;;5120292;27;20480;-26
2022/04/18 01:13:03;;;;;;;17.10;9.07;;;5.50;25.30;;;;;;5120835;27;20082;-26
2022/04/18 01:15:32;;;;;;;12.40;8.50;;;5.50;32.40;;;;;;5124535;27;20062;-26
2022/04/18 01:17:58;;;;;;;13.47;8.93;;;5.40;33.90;;;;;;5100859;27;20374;-26
2022/04/18 01:20:37;;;;;;;13.63;8.90;;;5.40;67.50;;;;;;5102149;27;20050;-26
2022/04/18 01:23:06;;;;;;;14.10;9.07;;;5.40;90.50;;;;;;5127592;27;20436;-26
2022/04/18 01:31:04;;;;;;;16.23;8.80;;;5.20;74.50;;;;;;5119676;27;20051;-26
2022/04/18 01:33:32;;;;;;;14.00;9.13;;;5.20;95.90;;;;;;5125482;27;20111;-26
2022/04/18 01:35:58;;;;;;;16.30;9.77;;;5.20;96.50;;;;;;5120019;27;20074;-27
2022/04/18 01:38:26;;;;;;;16.17;9.90;;;5.10;99.40;;;;;;5127910;27;20082;-26
2022/04/18 01:40:52;;;;;;;16.40;9.67;;;5.10;99.90;;;;;;5132038;27;20531;-25
2022/04/18 01:43:20;;;;;;;16.53;9.27;;;5.10;99.90;;;;;;5126594;27;20047;-26
2022/04/18 01:45:46;;;;;;;16.67;9.77;;;5.10;99.90;;;;;;5125984;27;20373;-26
2022/04/18 01:48:17;;;;;;;17.90;9.60;;;5.10;99.90;;;;;;5131204;27;20096;-26
2022/04/18 01:50:43;;;;;;;15.57;9.57;;;5.10;99.90;;;;;;5093249;28;20492;-25
2022/04/18 01:53:09;;;;;;;16.50;9.43;;;5.10;99.90;;;;;;5118579;27;20054;-26
2022/04/18 01:55:37;;;;;;;17.57;11.10;;;5.10;99.90;;;;;;5122872;27;20047;-26
2022/04/18 01:58:05;;;;;;;16.77;9.77;;;5.10;99.90;;;;;;5085285;28;20048;-26
2022/04/18 02:00:32;;;;;;;15.40;9.40;;;5.10;99.90;;;;;;5125214;27;20088;-26
2022/04/18 02:02:58;;;;;;;16.67;9.53;;;5.10;99.90;;;;;;5099398;27;20039;-26
2022/04/18 02:05:29;;;;;;;17.23;9.90;;;5.00;99.90;;;;;;5120545;27;20039;-26
2022/04/18 02:07:54;;;;;;;15.90;9.63;;;5.00;99.90;;;;;;5100986;27;20204;-26
2022/04/18 02:10:20;;;;;;;14.73;9.47;;;5.00;99.90;;;;;;5097269;28;20126;-26
2022/04/18 02:12:48;;;;;;;17.83;10.97;;;5.00;99.90;;;;;;5116411;27;20118;-26
2022/04/18 02:15:15;;;;;;;14.57;9.70;;;5.00;99.90;;;;;;5125068;27;20044;-26
2022/04/18 02:17:41;;;;;;;16.87;10.27;;;5.00;99.90;;;;;;5122588;27;20114;-26
2022/04/18 02:20:10;;;;;;;19.97;10.63;;;5.00;99.90;;;;;;5115048;27;20039;-26
2022/04/18 02:22:36;;;;;;;19.30;10.40;;;5.00;99.90;;;;;;5125728;27;20047;-26
2022/04/18 02:25:02;;;;;;;17.50;10.45;;;4.90;99.90;;;;;;5113083;27;20051;-26
2022/04/18 02:27:28;;;;;;;15.43;9.40;;;4.90;99.90;;;;;;5085296;27;20388;-26
2022/04/18 02:29:56;;;;;;;15.17;8.83;;;4.90;99.90;;;;;;5117593;27;20048;-26
2022/04/18 02:35:06;;;;;;;17.20;10.00;;;4.80;99.90;;;;;;5131930;27;20043;-26
2022/04/18 02:37:32;;;;;;;16.13;9.90;;;4.80;99.90;;;;;;5123492;27;20032;-26
2022/04/18 02:39:59;;;;;;;18.97;10.37;;;4.80;99.90;;;;;;5094906;27;20062;-27
2022/04/18 02:42:26;;;;;;;16.60;10.27;;;4.80;99.90;;;;;;5118775;27;20042;-26
2022/04/18 02:44:52;;;;;;;16.77;9.97;;;4.80;99.90;;;;;;5132393;27;20047;-26
2022/04/18 02:47:18;;;;;;;22.07;11.40;;;4.80;99.90;;;;;;5108069;27;20472;-25
2022/04/18 02:49:43;;;;;;;17.80;10.83;;;4.70;99.90;;;;;;5114595;27;20560;-26
2022/04/18 02:52:09;;;;;;;16.77;10.50;;;4.60;99.90;;;;;;5118300;27;20101;-26
2022/04/18 02:54:35;;;;;;;15.87;10.43;;;4.50;99.90;;;;;;5116641;27;20039;-26
2022/04/18 02:57:00;;;;;;;19.80;11.17;;;4.50;99.90;;;;;;5117203;27;20050;-26
2022/04/18 02:59:26;;;;;;;17.33;10.77;;;4.40;99.90;;;;;;5124653;27;20503;-27
2022/04/18 03:01:52;;;;;;;18.47;11.07;;;4.40;99.90;;;;;;5127170;27;20095;-28
2022/04/18 03:04:17;;;;;;;20.67;10.67;;;4.30;99.90;;;;;;5119854;27;20400;-27
2022/04/18 03:06:46;;;;;;;14.60;9.60;;;4.30;99.90;;;;;;5126382;27;20095;-27
2022/04/18 03:09:15;;;;;;;16.53;10.30;;;4.30;99.90;;;;;;5122602;27;20047;-27
2022/04/18 03:11:41;;;;;;;17.80;10.07;;;4.20;99.90;;;;;;5116356;27;20396;-27
2022/04/18 03:14:09;;;;;;;16.27;10.30;;;4.20;99.90;;;;;;5128220;27;20046;-27
2022/04/18 03:16:35;;;;;;;19.27;10.50;;;4.20;99.90;;;;;;5121972;27;20052;-27
2022/04/18 03:19:00;;;;;;;17.07;10.50;;;4.20;99.90;;;;;;5098752;28;20127;-28
2022/04/18 03:21:28;;;;;;;16.43;9.90;;;4.20;99.90;;;;;;5104726;27;20396;-28
2022/04/18 03:23:55;;;;;;;17.80;10.73;;;4.20;99.90;;;;;;5122103;27;20039;-28
2022/04/18 03:26:21;;;;;;;20.60;9.77;;;4.20;99.90;;;;;;5102046;27;20423;-28
2022/04/18 03:28:46;;;;;;;19.70;10.20;;;4.10;99.90;;;;;;5124577;27;20123;-28
2022/04/18 03:31:15;;;;;;;15.70;10.03;;;4.10;99.90;;;;;;5123644;27;20122;-28
2022/04/18 03:33:41;;;;;;;18.30;11.10;;;4.10;99.90;;;;;;5122161;27;20122;-27
2022/04/18 03:41:35;;;;;;;16.20;10.30;;;4.10;99.90;;;;;;5100913;28;20051;-27
2022/04/18 03:44:01;;;;;;;15.23;9.83;;;4.00;99.90;;;;;;5123769;27;20044;-28
2022/04/18 03:46:26;;;;;;;19.10;11.23;;;3.90;99.90;;;;;;5124569;27;20035;-27
2022/04/18 03:48:53;;;;;;;14.50;9.60;;;3.90;99.90;;;;;;5120739;27;20065;-28
2022/04/18 03:51:19;;;;;;;18.97;10.20;;;3.90;99.90;;;;;;5131272;27;20118;-28
2022/04/18 03:53:45;;;;;;;17.67;10.97;;;3.90;99.90;;;;;;5098358;27;20127;-28
2022/04/18 03:56:10;;;;;;;16.27;10.33;;;3.90;99.90;;;;;;5097112;28;20062;-27
2022/04/18 03:58:36;;;;;;;19.40;11.37;;;3.90;99.90;;;;;;5078432;28;20104;-28
2022/04/18 04:01:02;;;;;;;19.63;10.30;;;3.80;99.90;;;;;;5109565;27;20092;-27
2022/04/18 04:03:27;;;;;;;17.77;10.77;;;3.80;99.90;;;;;;5131515;27;20122;-27
2022/04/18 04:05:53;;;;;;;16.30;10.63;;;3.80;99.90;;;;;;5113463;27;20112;-28
2022/04/18 04:08:22;;;;;;;14.73;9.70;;;3.80;99.90;;;;;;5127464;27;20404;-28
2022/04/18 04:10:50;;;;;;;14.10;9.93;;;3.80;99.90;;;;;;5108718;27;20110;-27
2022/04/18 04:13:18;;;;;;;14.40;10.33;;;3.80;99.90;;;;;;5122027;27;20110;-27
2022/04/18 04:15:44;;;;;;;17.77;10.90;;;3.80;99.90;;;;;;5131287;27;20043;-27
2022/04/18 04:18:10;;;;;;;17.03;10.27;;;3.80;99.90;;;;;;5128147;27;20146;-27
2022/04/18 04:20:35;;;;;;;15.47;10.53;;;3.80;99.90;;;;;;5132032;27;20495;-27
2022/04/18 04:23:01;;;;;;;17.00;10.67;;;3.80;1.00;;;;;;5103138;28;20043;-28
2022/04/18 04:25:27;;;;;;;16.47;10.90;;;3.80;99.90;;;;;;5119504;28;20107;-27
2022/04/18 04:27:52;;;;;;;21.43;12.03;;;3.70;99.90;;;;;;5103162;27;20047;-27
2022/04/18 04:30:18;;;;;;;17.30;9.73;;;3.70;99.90;;;;;;5119207;27;20043;-27
2022/04/18 04:32:44;;;;;;;17.07;11.20;;;3.60;99.90;;;;;;5119182;28;20078;-28
2022/04/18 04:35:10;;;;;;;17.23;10.87;;;3.60;99.90;;;;;;5118541;28;20039;-27
2022/04/18 04:37:36;;;;;;;18.63;11.37;;;3.60;1.00;;;;;;5117856;28;20096;-28
2022/04/18 04:40:03;;;;;;;16.60;10.23;;;3.70;99.90;;;;;;5113370;28;20483;-28
2022/04/18 04:42:29;;;;;;;18.87;10.70;;;3.70;99.90;;;;;;5116717;28;20396;-28
2022/04/18 04:44:55;;;;;;;15.60;10.80;;;3.70;99.90;;;;;;5130848;27;20051;-27
2022/04/18 04:47:21;;;;;;;14.47;10.40;;;3.70;99.90;;;;;;5124936;27;20039;-28
2022/04/18 04:49:47;;;;;;;19.40;11.03;;;3.80;99.90;;;;;;5084825;28;20043;-27
2022/04/18 04:52:12;;;;;;;18.60;10.50;;;4.20;99.90;;;;;;5123684;27;20097;-27
2022/04/18 04:54:38;;;;;;;15.73;9.40;;;3.80;99.90;;;;;;5102088;28;20406;-28
2022/04/18 04:57:04;;;;;;;19.40;10.70;;;3.80;99.90;;;;;;5127035;27;20484;-29
2022/04/18 04:59:30;;;;;;;18.10;10.67;;;3.90;99.90;;;;;;5135379;27;20118;-27
2022/04/18 05:01:56;;;;;;;14.30;9.70;;;3.90;99.90;;;;;;5104005;27;20074;-28
2022/04/18 05:04:25;;;;;;;15.67;10.30;;;3.90;99.90;;;;;;5103217;28;20039;-27
2022/04/18 05:06:51;;;;;;;17.20;10.53;;;3.90;99.90;;;;;;5100405;27;20108;-27
2022/04/18 05:09:17;;;;;;;17.40;9.77;;;4.40;99.90;;;;;;5132122;27;20123;-27
2022/04/18 05:11:43;;;;;;;28.93;10.67;;;4.00;99.90;;;;;;5099426;27;20563;-27
2022/04/18 05:14:09;;;;;;;15.93;9.80;;;4.00;99.90;;;;;;5130583;27;20046;-30
2022/04/18 05:16:34;;;;;;;17.13;9.50;;;4.00;99.90;;;;;;5127838;27;20047;-28
2022/04/18 05:19:00;;;;;;;15.80;9.23;;;4.00;99.90;;;;;;5130593;27;20468;-27
2022/04/18 05:21:26;;;;;;;15.23;10.70;;;4.10;99.90;;;;;;5135767;27;20046;-28
2022/04/18 05:23:52;;;;;;;18.20;10.13;;;4.20;99.90;;;;;;5130975;27;20047;-28
2022/04/18 05:26:17;;;;;;;17.23;9.30;;;4.20;99.90;;;;;;5098323;28;20052;-28
2022/04/18 05:28:43;;;;;;;16.27;9.90;;;4.30;99.90;;;;;;5101804;28;20047;-27
2022/04/18 05:31:09;;;;;;;16.43;9.43;;;4.20;99.90;;;;;;5103945;28;20119;-27
2022/04/18 05:33:34;;;;;;;16.23;9.20;;;4.30;99.90;;;;;;5102351;28;20047;-27
2022/04/18 05:36:00;;;;;;;17.43;9.57;;;4.30;99.90;;;;;;5099241;28;20047;-29
2022/04/18 05:38:26;;;;;;;17.20;10.17;;;4.40;99.90;;;;;;5095548;28;20401;-28
2022/04/18 05:40:52;;;;;;;16.00;9.50;;;4.50;99.90;;;;;;5100843;28;20126;-28
2022/04/18 05:43:18;;;;;;;15.53;9.23;;;4.60;99.90;;;;;;5103832;28;20132;-27
2022/04/18 05:45:44;;;;;;;14.50;9.67;;;4.60;99.90;;;;;;5097198;28;20458;-27
2022/04/18 05:48:10;;;;;;;15.40;9.43;;;4.70;99.90;;;;;;5101984;28;20044;-29
2022/04/18 05:50:35;;;;;;;15.20;9.97;;;4.80;99.90;;;;;;5106943;28;20385;-28
2022/04/18 05:53:02;;;;;;;13.73;9.63;;;4.80;99.90;;;;;;5111218;28;20114;-28
2022/04/18 05:55:27;;;;;;;14.97;9.47;;;5.00;99.90;;;;;;5104990;28;20450;-28
2022/04/18 05:57:53;;;;;;;15.85;9.80;;;5.10;99.90;;;;;;5097574;28;20122;-27
2022/04/18 06:00:20;;;;;;;14.43;9.38;;;5.10;99.90;;;;;;5097843;28;20044;-28
2022/04/18 06:02:45;;;;;;;16.15;9.95;;;5.30;99.90;;;;;;5099292;28;20035;-28
2022/04/18 06:05:11;;;;;;;14.20;9.00;;;5.40;99.90;;;;;;5114521;28;20100;-28
2022/04/18 06:07:39;;;;;;;15.73;9.13;;;5.60;99.90;;;;;;5113271;28;20123;-28
2022/04/18 06:10:08;;;;;;;12.82;9.57;;;5.70;99.90;;;;;;5106577;28;20371;-27
2022/04/18 06:12:33;;;;;;;13.20;8.80;;;5.80;99.90;;;;;;5103102;28;20043;-28
2022/04/18 06:14:59;;;;;;;13.88;9.05;;;6.00;99.90;;;;;;5109490;28;20397;-28
2022/04/18 06:17:25;;;;;;;15.00;9.85;;;6.10;99.90;;;;;;5109014;28;20456;-28
2022/04/18 06:19:51;;;;;;;13.02;8.73;;;6.20;99.90;;;;;;5091501;28;20040;-28
2022/04/18 06:22:16;;;;;;;13.43;9.23;;;6.30;99.90;;;;;;5103977;28;20486;-28
2022/04/18 06:24:42;;;;;;;13.13;9.02;;;6.40;99.90;;;;;;5106742;27;20058;-28
2022/04/18 06:27:08;;;;;;;16.45;8.68;;;6.60;99.90;;;;;;5127025;27;20384;-28
2022/04/18 06:29:35;;;;;;;12.40;8.65;;;6.80;99.90;;;;;;5120999;27;20130;-28
2022/04/18 06:32:00;;;;;;;11.88;8.10;;;6.90;99.90;;;;;;5121431;27;20043;-28
2022/04/18 06:34:27;;;;;;;11.60;8.13;;;7.00;99.90;;;;;;5096743;28;20211;-28
2022/04/18 06:36:53;;;;;;;14.38;9.02;;;7.20;99.90;;;;;;5117565;27;20043;-28
2022/04/18 06:39:19;;;;;;;12.10;8.27;;;7.30;99.90;;;;;;5121783;27;20074;-28
2022/04/18 06:41:45;;;;;;;13.68;8.40;;;7.40;99.90;;;;;;5111970;28;20147;-29
2022/04/18 06:44:10;;;;;;;14.35;8.35;;;7.50;99.90;;;;;;5129922;27;20082;-28
2022/04/18 06:46:37;;;;;;;13.13;7.70;;;7.70;99.90;;;;;;5131328;27;20122;-29
2022/04/18 06:49:02;;;;;;;12.32;7.95;;;7.80;99.90;;;;;;5096595;27;21905;-28
2022/04/18 06:51:28;;;;;;;15.82;7.88;;;7.90;99.90;;;;;;5130283;27;20043;-28
2022/04/18 06:53:54;;;;;;;11.18;8.20;;;8.10;99.90;;;;;;5100539;28;20043;-28
2022/04/18 06:59:04;;;;;;;11.02;7.53;;;8.30;99.90;;;;;;5118623;27;20402;-28
2022/04/18 07:01:30;;;;;;;10.85;8.10;;;8.50;99.90;;;;;;5104815;27;20932;-28
2022/04/18 07:03:55;;;;;;;10.27;7.43;;;8.60;99.90;;;;;;5118190;27;20055;-29
2022/04/18 07:06:21;;;;;;;11.82;7.65;;;8.70;99.90;;;;;;5114482;27;20122;-28
2022/04/18 07:08:47;;;;;;;12.88;8.10;;;8.90;99.90;;;;;;5096459;27;20058;-28
2022/04/18 07:11:13;;;;;;;13.38;8.30;;;9.00;99.90;;;;;;5121682;27;20043;-28
2022/04/18 07:13:42;;;;;;;14.98;8.30;;;9.10;99.90;;;;;;5123047;27;20066;-29
2022/04/18 07:16:08;;;;;;;11.68;8.02;;;9.30;99.90;;;;;;5108968;27;20054;-28
2022/04/18 07:18:35;;;;;;;11.60;7.75;;;9.40;99.90;;;;;;5112682;27;20043;-28
2022/04/18 07:21:03;;;;;;;10.23;6.95;;;9.50;99.90;;;;;;5133106;27;20492;-29
2022/04/18 07:23:29;;;;;;;13.65;7.80;;;9.60;99.90;;;;;;5129603;27;20132;-28
2022/04/18 07:25:55;;;;;;;10.52;6.85;;;9.70;99.90;;;;;;5096595;27;20155;-28
2022/04/18 07:28:22;;;;;;;11.90;7.70;;;9.80;99.90;;;;;;5125284;27;20512;-29
2022/04/18 07:30:47;;;;;;;11.02;7.65;;;10.00;99.90;;;;;;5114927;28;20040;-29
2022/04/18 07:33:16;;;;;;;13.45;8.13;;;10.10;99.90;;;;;;5120836;27;20396;-28
2022/04/18 07:35:43;;;;;;;11.15;7.70;;;10.20;99.90;;;;;;5115157;27;20104;-28
2022/04/18 07:40:54;;;;;;;11.13;7.82;;;10.40;99.90;;;;;;5115135;28;20188;-27
2022/04/18 07:43:21;;;;;;;12.18;6.55;;;10.50;87.50;;;;;;5117088;27;20132;-27
2022/04/18 07:45:47;;;;;;;10.63;6.95;;;10.60;29.90;;;;;;5097073;28;20484;-27
2022/04/18 07:48:13;;;;;;;10.95;7.57;;;10.80;29.60;;;;;;5118733;27;20111;-27
2022/04/18 07:53:23;;;;;;;10.40;6.78;;;11.00;12.10;;;;;;5109109;27;20124;-27
2022/04/18 07:55:49;;;;;;;10.88;7.47;;;11.20;1.00;;;;;;5115318;28;20458;-27
2022/04/18 07:58:15;;;;;;;9.85;7.43;;;11.30;1.00;;;;;;5113071;27;20408;-29
2022/04/18 08:00:40;;;;;;;11.02;6.63;;;11.30;1.00;;;;;;5096248;28;20051;-27
2022/04/18 08:03:06;;;;;;;12.75;6.72;;;11.40;1.00;;;;;;5124121;27;20047;-27
2022/04/18 08:05:32;;;;;;;11.57;6.70;;;11.50;1.00;;;;;;5113662;28;20123;-27
2022/04/18 08:07:58;;;;;;;12.55;6.82;;;11.60;1.00;;;;;;5102488;27;20047;-27
2022/04/18 08:10:26;;;;;;;11.02;6.72;;;11.70;1.00;;;;;;5116704;27;20104;-27
2022/04/18 08:12:52;;;;;;;11.90;7.35;;;11.80;1.00;;;;;;5106119;27;20382;-28
2022/04/18 08:15:18;;;;;;;11.25;6.90;;;11.90;1.00;;;;;;5093476;27;20170;-27
2022/04/18 08:17:43;;;;;;;10.98;7.13;;;12.10;1.00;;;;;;5115646;27;20043;-31
2022/04/18 08:20:10;;;;;;;11.55;6.80;;;12.10;1.00;;;;;;5109498;27;20404;-27
2022/04/18 08:22:36;;;;;;;13.15;7.28;;;12.20;1.00;;;;;;5114020;27;20040;-27
2022/04/18 08:25:02;;;;;;;9.95;7.03;;;12.30;1.00;;;;;;5114032;27;20062;-27
2022/04/18 08:27:28;;;;;;;9.77;6.43;;;12.40;1.00;;;;;;5122000;27;20052;-27
2022/04/18 08:29:54;;;;;;;8.57;5.50;;;12.50;1.00;;;;;;5127424;27;20048;-28
2022/04/18 08:32:20;;;;;;;10.45;6.60;;;12.60;1.00;;;;;;5134772;27;20473;-27
2022/04/18 08:34:45;;;;;;;10.73;6.28;;;12.80;1.00;;;;;;5130706;28;20055;-27
2022/04/18 08:37:11;;;;;;;10.30;6.10;;;13.00;1.00;;;;;;5134567;28;20590;-27
2022/04/18 08:39:37;;;;;;;11.55;6.50;;;13.10;1.00;;;;;;5117609;28;20541;-27
2022/04/18 08:42:05;;;;;;;10.80;6.45;;;13.20;1.00;;;;;;5079783;28;20069;-29
2022/04/18 08:44:32;;;;;;;11.25;6.20;;;13.30;1.00;;;;;;5115980;28;20126;-27
2022/04/18 08:46:57;;;;;;;9.60;6.35;;;13.40;1.00;;;;;;5118328;28;20065;-27
2022/04/18 08:54:52;;;;;;;11.32;6.50;;;13.80;1.00;;;;;;5115074;28;20440;-27
2022/04/18 08:57:18;;;;;;;12.85;6.50;;;13.90;1.00;;;;;;5116134;28;20592;-27
2022/04/18 08:59:44;;;;;;;11.75;7.05;;;14.00;1.00;;;;;;5117821;28;20043;-27
2022/04/18 09:02:10;;;;;;;9.90;6.85;;;14.20;1.00;;;;;;5120411;28;20392;-27
2022/04/18 09:04:36;;;;;;;9.68;5.80;;;14.40;1.00;;;;;;5121865;28;20088;-27
2022/04/18 09:07:28;;;;;;;12.27;6.55;;;15.00;99.90;;;;;;5096344;28;20103;-27
2022/04/18 09:09:55;;;;;;;10.32;6.53;;;16.10;99.90;;;;;;5109890;28;20058;-28
2022/04/18 09:12:23;;;;;;;10.27;6.32;;;16.90;99.90;;;;;;5131811;28;20031;-27
2022/04/18 09:14:48;;;;;;;10.35;6.35;;;17.50;99.90;;;;;;5118210;28;20534;-27
2022/04/18 09:17:31;;;;;;;9.48;6.45;;;18.20;99.90;;;;;;5124259;28;20063;-27
2022/04/18 09:20:12;;;;;;;8.95;6.30;;;18.70;99.90;;;;;;5121237;28;20481;-27
2022/04/18 09:22:45;;;;;;;9.30;6.03;;;19.00;99.90;;;;;;5120479;28;20035;-29
2022/04/18 09:25:21;;;;;;;9.10;5.75;;;19.20;99.90;;;;;;5117796;28;20047;-28
2022/04/18 09:27:55;;;;;;;9.98;5.80;;;19.30;99.90;;;;;;5121512;28;20403;-27
2022/04/18 09:30:21;;;;;;;11.65;6.22;;;19.70;99.90;;;;;;5121999;27;20039;-28
2022/04/18 09:33:06;;;;;;;7.05;5.57;;;20.00;99.90;;;;;;5117585;27;20050;-27
2022/04/18 09:35:33;;;;;;;8.38;5.97;;;20.30;99.90;;;;;;5128538;27;20659;-27
2022/04/18 09:38:06;;;;;;;6.95;5.45;;;20.30;99.90;;;;;;5132896;27;20051;-29
2022/04/18 09:40:32;;;;;;;10.32;6.32;;;20.60;99.90;;;;;;5109200;27;20050;-27
2022/04/18 09:42:58;;;;;;;9.93;6.28;;;20.40;99.90;;;;;;5125156;27;20048;-28
2022/04/18 09:45:24;;;;;;;9.93;5.47;;;20.40;99.90;;;;;;5127745;27;20050;-29
2022/04/18 09:48:01;;;;;;;8.60;5.78;;;20.50;99.90;;;;;;5136287;27;20047;-27
2022/04/18 09:53:19;;;;;;;6.97;4.95;;;20.90;99.90;;;;;;5086770;27;20051;-28
2022/04/18 09:55:53;;;;;;;8.52;5.63;;;21.10;99.90;;;;;;5116504;27;20047;-28
2022/04/18 09:58:20;;;;;;;7.05;4.72;;;21.00;99.90;;;;;;5113287;27;20055;-27
2022/04/18 10:00:46;;;;;;;8.88;5.93;;;21.10;99.90;;;;;;5111756;27;20131;-27
2022/04/18 10:03:12;;;;;;;11.13;5.97;;;21.40;99.90;;;;;;5128138;27;20051;-28
2022/04/18 10:05:39;;;;;;;9.07;5.38;;;21.70;99.90;;;;;;5117593;27;20039;-27
2022/04/18 10:08:05;;;;;;;8.23;5.32;;;21.60;99.90;;;;;;5118392;27;20055;-27
2022/04/18 10:10:37;;;;;;;6.20;4.75;;;21.70;99.90;;;;;;5122603;27;20469;-27
2022/04/18 10:13:03;;;;;;;7.18;5.15;;;21.80;99.90;;;;;;5107880;27;20439;-28
2022/04/18 10:15:29;;;;;;;8.15;4.93;;;21.90;99.90;;;;;;5087549;28;20477;-28
2022/04/18 10:18:02;;;;;;;7.50;4.95;;;22.20;99.90;;;;;;5115941;27;20122;-27
2022/04/18 10:20:46;;;;;;;6.72;5.22;;;22.60;99.90;;;;;;5121316;27;20386;-28
2022/04/18 10:23:39;;;;;;;5.80;4.63;;;22.80;99.90;;;;;;5118460;27;20047;-28
2022/04/18 10:26:20;;;;;;;6.50;4.93;;;22.70;99.90;;;;;;5122869;27;20051;-27
2022/04/18 10:28:50;;;;;;;7.93;5.18;;;22.40;99.90;;;;;;5104095;27;20050;-27
2022/04/18 10:31:22;;;;;;;7.75;4.38;;;22.60;99.90;;;;;;5118555;27;20035;-27
2022/04/18 10:33:49;;;;;;;7.20;4.93;;;22.80;99.90;;;;;;5117898;27;20043;-27
2022/04/18 10:36:28;;;;;;;7.20;4.60;;;23.10;99.90;;;;;;5132441;27;20070;-29
2022/04/18 10:39:00;;;;;;;7.47;4.38;;;23.30;99.90;;;;;;5116216;27;20046;-28
2022/04/18 10:41:40;;;;;;;5.55;4.25;;;23.30;99.90;;;;;;5105554;28;20055;-29
2022/04/18 10:44:18;;;;;;;6.90;4.47;;;23.10;99.90;;;;;;5127110;27;20392;-28
2022/04/18 10:46:56;;;;;;;8.07;4.75;;;23.30;99.90;;;;;;5114706;27;20606;-28
2022/04/18 10:49:23;;;;;;;6.15;4.75;;;23.40;99.90;;;;;;5108797;27;20047;-28
2022/04/18 10:51:51;;;;;;;5.93;4.40;;;23.60;99.90;;;;;;5120681;27;20039;-28
2022/04/18 10:54:23;;;;;;;7.10;4.38;;;23.80;99.90;;;;;;5133045;27;20047;-28
2022/04/18 10:56:57;;;;;;;7.35;3.60;;;23.90;99.90;;;;;;5132711;27;20039;-28
2022/04/18 10:59:31;;;;;;;4.45;3.47;;;23.90;99.90;;;;;;5126666;27;20403;-28
2022/04/18 11:02:03;;;;;;;5.38;3.15;;;24.10;99.90;;;;;;5098722;28;20446;-28
2022/04/18 11:04:30;;;;;;;7.55;3.58;;;24.40;99.90;;;;;;5115724;27;20048;-28
2022/04/18 11:06:58;;;;;;;3.53;2.35;;;24.20;99.90;;;;;;5098008;28;20051;-29
2022/04/18 11:09:26;;;;;;;4.63;3.30;;;24.00;99.90;;;;;;5127473;27;20523;-28
2022/04/18 11:12:01;;;;;;;4.07;2.97;;;23.80;99.90;;;;;;5097976;28;20484;-28
2022/04/18 11:14:30;;;;;;;4.65;3.10;;;23.80;99.90;;;;;;5104487;27;20047;-28
2022/04/18 11:16:59;;;;;;;4.72;3.00;;;23.80;99.90;;;;;;5115699;27;20143;-29
2022/04/18 11:19:36;;;;;;;5.60;2.80;;;23.90;99.90;;;;;;5126632;27;20042;-28
2022/04/18 11:22:07;;;;;;;4.65;3.03;;;24.10;99.90;;;;;;5124602;27;20485;-27
2022/04/18 11:24:41;;;;;;;3.72;3.03;;;24.00;99.90;;;;;;5107626;27;20099;-28
2022/04/18 11:27:11;;;;;;;5.38;3.25;;;23.90;99.90;;;;;;5122881;27;20060;-28
2022/04/18 11:29:38;;;;;;;4.50;3.20;;;24.10;99.90;;;;;;5128627;27;20039;-27
2022/04/18 11:32:06;;;;;;;5.07;3.03;;;24.60;99.90;;;;;;5123913;27;20045;-28
2022/04/18 11:34:34;;;;;;;5.07;3.03;;;24.80;99.90;;;;;;5104254;27;20058;-29
2022/04/18 11:37:08;;;;;;;3.97;2.55;;;24.10;99.90;;;;;;5068054;28;20075;-28
2022/04/18 11:39:42;;;;;;;6.38;3.47;;;24.20;99.90;;;;;;5121504;27;20046;-29
2022/04/18 11:42:08;;;;;;;4.57;2.75;;;24.40;99.90;;;;;;5122219;27;20039;-29
2022/04/18 11:44:41;;;;;;;4.63;2.80;;;24.60;99.90;;;;;;5099765;27;20039;-28
2022/04/18 11:47:07;;;;;;;;;;;24.90;99.90;;;;;;5116915;27;20061;-29
2022/04/18 11:49:33;;;;;;;2.38;2.17;;;24.90;99.90;;;;;;5115702;27;19919;-28
2022/04/18 11:51:59;;;;;;;4.45;2.45;;;25.10;99.90;;;;;;5122903;27;20038;-28
2022/04/18 11:54:24;;;;;;;3.67;2.33;;;25.10;99.90;;;;;;5116876;27;20079;-29
2022/04/18 11:57:02;;;;;;;3.72;2.30;;;25.00;99.90;;;;;;5096252;28;20466;-28
2022/04/18 11:59:30;;;;;;;3.28;2.97;;;25.00;99.90;;;;;;5115027;27;20126;-29
2022/04/18 12:07:30;;;;;;;4.13;2.35;;;25.00;99.90;;;;;;5122427;27;20404;-28
2022/04/18 12:09:56;;;;;;;4.28;2.15;;;24.90;99.90;;;;;;5133577;27;20047;-29
2022/04/18 12:12:29;;;;;;;5.63;2.60;;;25.00;99.90;;;;;;5131642;27;20043;-28
2022/04/18 12:15:03;;;;;;;4.18;2.30;;;25.00;99.90;;;;;;5097272;28;20098;-29
2022/04/18 12:17:32;;;;;;;5.45;2.30;;;25.00;99.90;;;;;;5117092;27;20036;-28
2022/04/18 12:19:58;;;;;;;2.83;2.30;;;25.10;99.90;;;;;;5127518;27;20047;-28
2022/04/18 12:22:24;;;;;;;3.50;2.30;;;25.20;99.90;;;;;;5119054;27;20047;-29
2022/04/18 12:24:50;;;;;;;2.50;2.20;;;25.30;99.90;;;;;;5109469;27;20059;-29
2022/04/18 12:27:16;;;;;;;3.17;2.42;;;25.40;99.90;;;;;;5118953;27;20077;-28
2022/04/18 12:29:43;;;;;;;3.47;2.60;;;25.40;99.90;;;;;;5114683;28;20043;-28
2022/04/18 12:32:26;;;;;;;3.92;2.58;;;25.40;99.90;;;;;;5096143;28;20382;-28
2022/04/18 12:34:52;;;;;;;3.30;2.20;;;25.60;99.90;;;;;;5114308;28;20058;-29
2022/04/18 12:37:18;;;;;;;4.00;2.55;;;25.80;99.90;;;;;;5117335;28;20500;-29
2022/04/18 12:39:44;;;;;;;5.35;2.40;;;25.90;99.90;;;;;;5122825;28;20050;-29
2022/04/18 12:42:09;;;;;;;3.85;2.50;;;26.10;99.90;;;;;;5131777;28;20043;-29
2022/04/18 12:44:39;;;;;;;4.30;2.88;;;25.70;99.90;;;;;;5134422;28;20456;-28
2022/04/18 12:47:25;;;;;;;5.47;2.38;;;25.60;99.90;;;;;;5124017;28;20088;-28
2022/04/18 12:50:05;;;;;;;3.03;2.20;;;25.70;99.90;;;;;;5122024;28;20533;-28
2022/04/18 12:52:31;;;;;;;5.35;2.95;;;25.80;99.90;;;;;;5117998;28;20043;-28
2022/04/18 12:55:15;;;;;;;3.45;2.50;;;25.50;99.90;;;;;;5120757;28;20049;-29
2022/04/18 12:57:47;;;;;;;2.78;2.50;;;25.40;99.90;;;;;;5102739;28;20111;-29
2022/04/18 13:00:14;;;;;;;4.43;2.60;;;25.40;99.90;;;;;;5128952;28;20079;-28
2022/04/18 13:03:01;;;;;;;3.92;2.50;;;25.50;99.90;;;;;;5107802;28;20090;-28
2022/04/18 13:05:49;;;;;;;2.75;2.25;;;25.60;99.90;;;;;;5120830;27;20125;-29
2022/04/18 13:08:17;;;;;;;4.97;2.28;;;25.80;99.90;;;;;;5121454;27;20047;-29
2022/04/18 13:10:44;;;;;;;2.72;2.00;;;25.80;99.90;;;;;;5137571;27;20043;-28
2022/04/18 13:13:18;;;;;;;3.47;2.50;;;25.80;99.90;;;;;;5106837;28;20047;-28
2022/04/18 13:15:46;;;;;;;3.05;2.30;;;26.00;99.90;;;;;;5128148;27;20079;-28
2022/04/18 13:18:24;;;;;;;6.28;2.30;;;26.10;99.90;;;;;;5117633;27;20057;-28
2022/04/18 13:20:49;;;;;;;3.33;2.45;;;25.90;99.90;;;;;;5121603;27;20100;-28
2022/04/18 13:23:15;;;;;;;5.70;2.72;;;25.60;99.90;;;;;;5126880;27;20437;-28
2022/04/18 13:25:42;;;;;;;4.18;2.70;;;25.60;99.90;;;;;;5107478;28;20052;-28